DAL2573 KEWR-KDTW
Flight info
| Callsign | DAL2573 |
|---|---|
| Flight time | 1h 21m |
| Altitude | 32000 |
| Route | GAYEL J95 CFB TRAAD JACCI FERRL2 |
| Aircraft | A320/M-SDE3FGHIRWY/LB1 |
Departure
| Time | 2026-05-06 01:40 |
|---|---|
| Airport | Newark Liberty International Airport (KEWR) |
Arrival
| Time | 2026-05-06 03:02 |
|---|---|
| Airport | Detroit Metropolitan Wayne County Airport (KDTW) |
| Time | Latitude | Longitude | Altitude | Speed | Heading |
|---|---|---|---|---|---|
| 2026-05-06 01:15 | 40.68133 | -74.18747 | 22 ft | 0 kts | 288° |
| 2026-05-06 01:28 | 40.68133 | -74.18744 | 22 ft | 3 kts | 288° |
| 2026-05-06 01:28 | 40.68124 | -74.18711 | 23 ft | 4 kts | 293° |
| 2026-05-06 01:28 | 40.68112 | -74.18681 | 24 ft | 4 kts | 310° |
| 2026-05-06 01:29 | 40.68093 | -74.18664 | 22 ft | 3 kts | 8° |
| 2026-05-06 01:29 | 40.68090 | -74.18665 | 22 ft | 0 kts | 12° |
| 2026-05-06 01:30 | 40.68092 | -74.18664 | 22 ft | 1 kts | 12° |
| 2026-05-06 01:31 | 40.68118 | -74.18656 | 22 ft | 13 kts | 13° |
| 2026-05-06 01:31 | 40.68235 | -74.18591 | 22 ft | 17 kts | 56° |
| 2026-05-06 01:31 | 40.68246 | -74.18450 | 22 ft | 15 kts | 92° |
| 2026-05-06 01:31 | 40.68238 | -74.18322 | 22 ft | 13 kts | 95° |
| 2026-05-06 01:32 | 40.68232 | -74.18222 | 22 ft | 10 kts | 93° |
| 2026-05-06 01:32 | 40.68236 | -74.18162 | 22 ft | 0 kts | 77° |
| 2026-05-06 01:34 | 40.68239 | -74.18141 | 22 ft | 14 kts | 83° |
| 2026-05-06 01:34 | 40.68225 | -74.17964 | 24 ft | 16 kts | 111° |
| 2026-05-06 01:34 | 40.68185 | -74.17861 | 22 ft | 12 kts | 117° |
| 2026-05-06 01:34 | 40.68149 | -74.17762 | 23 ft | 12 kts | 106° |
| 2026-05-06 01:35 | 40.68200 | -74.17684 | 22 ft | 13 kts | 25° |
| 2026-05-06 01:35 | 40.68280 | -74.17634 | 24 ft | 15 kts | 25° |
| 2026-05-06 01:35 | 40.68420 | -74.17546 | 23 ft | 25 kts | 26° |
| 2026-05-06 01:35 | 40.68569 | -74.17448 | 24 ft | 23 kts | 25° |
| 2026-05-06 01:36 | 40.68707 | -74.17361 | 23 ft | 21 kts | 25° |
| 2026-05-06 01:36 | 40.68835 | -74.17281 | 23 ft | 20 kts | 25° |
| 2026-05-06 01:36 | 40.68954 | -74.17206 | 22 ft | 18 kts | 26° |
| 2026-05-06 01:36 | 40.69089 | -74.17120 | 22 ft | 26 kts | 26° |
| 2026-05-06 01:37 | 40.69244 | -74.17020 | 22 ft | 24 kts | 26° |
| 2026-05-06 01:37 | 40.69386 | -74.16928 | 22 ft | 22 kts | 26° |
| 2026-05-06 01:37 | 40.69516 | -74.16846 | 22 ft | 20 kts | 25° |
| 2026-05-06 01:37 | 40.69637 | -74.16771 | 22 ft | 18 kts | 26° |
| 2026-05-06 01:38 | 40.69754 | -74.16696 | 23 ft | 21 kts | 26° |
| 2026-05-06 01:38 | 40.69877 | -74.16617 | 21 ft | 19 kts | 26° |
| 2026-05-06 01:38 | 40.69989 | -74.16545 | 21 ft | 17 kts | 26° |
| 2026-05-06 01:38 | 40.70062 | -74.16491 | 21 ft | 6 kts | 56° |
| 2026-05-06 01:39 | 40.70063 | -74.16478 | 21 ft | 0 kts | 84° |
| 2026-05-06 01:39 | 40.70064 | -74.16472 | 21 ft | 5 kts | 86° |
| 2026-05-06 01:39 | 40.70008 | -74.16381 | 20 ft | 16 kts | 178° |
| 2026-05-06 01:39 | 40.69977 | -74.16396 | 19 ft | 5 kts | 207° |
| 2026-05-06 01:40 | 40.69747 | -74.16541 | 22 ft | 70 kts | 205° |
| 2026-05-06 01:40 | 40.69128 | -74.16932 | 24 ft | 126 kts | 205° |
| 2026-05-06 01:40 | 40.68228 | -74.17501 | 260 ft | 150 kts | 205° |
| 2026-05-06 01:40 | 40.67233 | -74.17943 | 864 ft | 153 kts | 188° |
| 2026-05-06 01:41 | 40.66170 | -74.17999 | 1566 ft | 153 kts | 184° |
| 2026-05-06 01:41 | 40.65101 | -74.18121 | 2000 ft | 160 kts | 206° |
| 2026-05-06 01:41 | 40.64121 | -74.18968 | 2303 ft | 180 kts | 214° |
| 2026-05-06 01:41 | 40.62952 | -74.19858 | 2477 ft | 208 kts | 211° |
| 2026-05-06 01:42 | 40.61632 | -74.20771 | 2521 ft | 219 kts | 211° |
| 2026-05-06 01:42 | 40.60270 | -74.21689 | 2523 ft | 220 kts | 210° |
| 2026-05-06 01:42 | 40.58897 | -74.22613 | 2629 ft | 226 kts | 211° |
| 2026-05-06 01:42 | 40.57668 | -74.23879 | 3478 ft | 225 kts | 232° |
| 2026-05-06 01:43 | 40.57008 | -74.25747 | 4311 ft | 231 kts | 258° |
| 2026-05-06 01:43 | 40.57157 | -74.27885 | 5114 ft | 246 kts | 286° |
| 2026-05-06 01:43 | 40.58226 | -74.29734 | 5898 ft | 268 kts | 317° |
| 2026-05-06 01:43 | 40.60029 | -74.30611 | 6693 ft | 289 kts | 346° |
| 2026-05-06 01:44 | 40.62050 | -74.30857 | 7519 ft | 293 kts | 351° |
| 2026-05-06 01:44 | 40.64090 | -74.30965 | 8375 ft | 295 kts | 353° |
| 2026-05-06 01:44 | 40.66152 | -74.31032 | 9220 ft | 297 kts | 354° |
| 2026-05-06 01:44 | 40.68228 | -74.31097 | 10047 ft | 299 kts | 354° |
| 2026-05-06 01:45 | 40.70353 | -74.31189 | 10481 ft | 316 kts | 353° |
| 2026-05-06 01:45 | 40.72628 | -74.31314 | 10657 ft | 339 kts | 353° |
| 2026-05-06 01:45 | 40.75064 | -74.31464 | 10805 ft | 362 kts | 353° |
| 2026-05-06 01:45 | 40.77634 | -74.31632 | 11146 ft | 375 kts | 353° |
| 2026-05-06 01:46 | 40.80269 | -74.31804 | 11726 ft | 382 kts | 353° |
| 2026-05-06 01:46 | 40.82939 | -74.31973 | 12345 ft | 387 kts | 353° |
| 2026-05-06 01:46 | 40.85642 | -74.32148 | 12956 ft | 391 kts | 353° |
| 2026-05-06 01:46 | 40.88382 | -74.32325 | 13562 ft | 396 kts | 354° |
| 2026-05-06 01:47 | 40.91150 | -74.32504 | 14144 ft | 401 kts | 353° |
| 2026-05-06 01:47 | 40.93934 | -74.32684 | 14772 ft | 402 kts | 353° |
| 2026-05-06 01:47 | 40.96738 | -74.32865 | 15342 ft | 405 kts | 353° |
| 2026-05-06 01:47 | 40.99569 | -74.33046 | 15893 ft | 409 kts | 353° |
| 2026-05-06 01:48 | 41.02427 | -74.33232 | 16435 ft | 413 kts | 353° |
| 2026-05-06 01:48 | 41.05306 | -74.33421 | 16978 ft | 417 kts | 353° |
| 2026-05-06 01:48 | 41.08224 | -74.33614 | 17495 ft | 422 kts | 353° |
| 2026-05-06 01:48 | 41.11166 | -74.33809 | 18042 ft | 425 kts | 353° |
| 2026-05-06 01:49 | 41.14136 | -74.33999 | 18492 ft | 430 kts | 353° |
| 2026-05-06 01:49 | 41.16124 | -74.34125 | 18782 ft | 433 kts | 353° |
| 2026-05-06 01:49 | 41.19146 | -74.34315 | 19235 ft | 436 kts | 353° |
| 2026-05-06 01:49 | 41.22182 | -74.34509 | 19684 ft | 439 kts | 352° |
| 2026-05-06 01:50 | 41.26244 | -74.34774 | 20274 ft | 443 kts | 352° |
| 2026-05-06 01:50 | 41.29329 | -74.34974 | 20707 ft | 445 kts | 352° |
| 2026-05-06 01:50 | 41.32418 | -74.35180 | 21110 ft | 448 kts | 351° |
| 2026-05-06 01:50 | 41.35485 | -74.35851 | 21541 ft | 443 kts | 339° |
| 2026-05-06 01:51 | 41.37565 | -74.36815 | 21790 ft | 440 kts | 330° |
| 2026-05-06 01:51 | 41.40221 | -74.38784 | 22167 ft | 435 kts | 319° |
| 2026-05-06 01:51 | 41.42522 | -74.41361 | 22534 ft | 430 kts | 308° |
| 2026-05-06 01:51 | 41.44402 | -74.44414 | 22898 ft | 425 kts | 298° |
| 2026-05-06 01:52 | 41.45915 | -74.47790 | 23249 ft | 424 kts | 294° |
| 2026-05-06 01:52 | 41.47391 | -74.51207 | 23588 ft | 427 kts | 294° |
| 2026-05-06 01:52 | 41.48871 | -74.54647 | 23893 ft | 429 kts | 294° |
| 2026-05-06 01:52 | 41.50358 | -74.58109 | 24216 ft | 430 kts | 294° |
| 2026-05-06 01:53 | 41.51849 | -74.61571 | 24546 ft | 432 kts | 295° |
| 2026-05-06 01:53 | 41.53352 | -74.65052 | 24865 ft | 433 kts | 295° |
| 2026-05-06 01:53 | 41.54855 | -74.68538 | 25163 ft | 434 kts | 295° |
| 2026-05-06 01:53 | 41.56363 | -74.72044 | 25472 ft | 436 kts | 295° |
| 2026-05-06 01:54 | 41.57868 | -74.75556 | 25764 ft | 437 kts | 295° |
| 2026-05-06 01:54 | 41.59378 | -74.79085 | 26045 ft | 438 kts | 295° |
| 2026-05-06 01:54 | 41.60897 | -74.82623 | 26337 ft | 439 kts | 295° |
| 2026-05-06 01:54 | 41.62420 | -74.86170 | 26601 ft | 440 kts | 295° |
| 2026-05-06 01:55 | 41.63944 | -74.89726 | 26858 ft | 442 kts | 295° |
| 2026-05-06 01:55 | 41.65473 | -74.93295 | 27097 ft | 443 kts | 295° |
| 2026-05-06 01:55 | 41.67003 | -74.96877 | 27336 ft | 444 kts | 295° |
| 2026-05-06 01:55 | 41.68506 | -75.00411 | 27621 ft | 443 kts | 295° |
| 2026-05-06 01:56 | 41.70027 | -75.03995 | 27955 ft | 442 kts | 295° |
| 2026-05-06 01:56 | 41.71545 | -75.07570 | 28321 ft | 441 kts | 295° |
| 2026-05-06 01:56 | 41.73057 | -75.11133 | 28708 ft | 439 kts | 295° |
| 2026-05-06 01:56 | 41.74560 | -75.14686 | 29082 ft | 437 kts | 295° |
| 2026-05-06 01:57 | 41.76055 | -75.18220 | 29434 ft | 436 kts | 295° |
| 2026-05-06 01:57 | 41.77554 | -75.21759 | 29771 ft | 435 kts | 295° |
| 2026-05-06 01:57 | 41.79039 | -75.25281 | 30090 ft | 434 kts | 295° |
| 2026-05-06 01:57 | 41.80514 | -75.28798 | 30411 ft | 432 kts | 295° |
| 2026-05-06 01:58 | 41.81986 | -75.32299 | 30736 ft | 430 kts | 295° |
| 2026-05-06 01:58 | 41.83452 | -75.35782 | 31059 ft | 428 kts | 295° |
| 2026-05-06 01:58 | 41.84911 | -75.39245 | 31385 ft | 426 kts | 295° |
| 2026-05-06 01:58 | 41.86359 | -75.42695 | 31734 ft | 423 kts | 295° |
| 2026-05-06 01:59 | 41.87800 | -75.46133 | 31842 ft | 423 kts | 295° |
| 2026-05-06 01:59 | 41.89244 | -75.49571 | 31860 ft | 423 kts | 295° |
| 2026-05-06 01:59 | 41.92118 | -75.56452 | 31852 ft | 422 kts | 295° |
| 2026-05-06 02:00 | 41.94982 | -75.63342 | 31853 ft | 422 kts | 295° |
| 2026-05-06 02:00 | 41.97847 | -75.70225 | 31856 ft | 422 kts | 295° |
| 2026-05-06 02:01 | 42.00710 | -75.77112 | 31839 ft | 422 kts | 295° |
| 2026-05-06 02:01 | 42.03563 | -75.84005 | 31856 ft | 421 kts | 295° |
| 2026-05-06 02:02 | 42.06404 | -75.90868 | 31858 ft | 420 kts | 295° |
| 2026-05-06 02:02 | 42.09241 | -75.97732 | 31850 ft | 419 kts | 295° |
| 2026-05-06 02:03 | 42.12053 | -76.04572 | 31861 ft | 417 kts | 295° |
| 2026-05-06 02:03 | 42.14776 | -76.11423 | 31850 ft | 411 kts | 289° |
| 2026-05-06 02:04 | 42.16162 | -76.18778 | 31872 ft | 403 kts | 274° |
| 2026-05-06 02:04 | 42.16720 | -76.26277 | 31863 ft | 400 kts | 274° |
| 2026-05-06 02:05 | 42.17285 | -76.33742 | 31861 ft | 400 kts | 274° |
| 2026-05-06 02:05 | 42.17866 | -76.41200 | 31852 ft | 400 kts | 274° |
| 2026-05-06 02:06 | 42.18436 | -76.48648 | 31854 ft | 400 kts | 274° |
| 2026-05-06 02:06 | 42.18992 | -76.56098 | 31884 ft | 399 kts | 274° |
| 2026-05-06 02:07 | 42.19541 | -76.63535 | 31871 ft | 398 kts | 274° |
| 2026-05-06 02:07 | 42.20088 | -76.70950 | 31866 ft | 397 kts | 274° |
| 2026-05-06 02:08 | 42.20627 | -76.78354 | 31856 ft | 397 kts | 274° |
| 2026-05-06 02:08 | 42.21155 | -76.85761 | 31848 ft | 396 kts | 274° |
| 2026-05-06 02:09 | 42.21686 | -76.93203 | 31863 ft | 395 kts | 274° |
| 2026-05-06 02:09 | 42.22211 | -77.00575 | 31865 ft | 395 kts | 274° |
| 2026-05-06 02:10 | 42.22733 | -77.07955 | 31858 ft | 394 kts | 274° |
| 2026-05-06 02:10 | 42.23243 | -77.15319 | 31851 ft | 394 kts | 274° |
| 2026-05-06 02:11 | 42.23745 | -77.22680 | 31850 ft | 394 kts | 274° |
| 2026-05-06 02:11 | 42.24246 | -77.30034 | 31851 ft | 393 kts | 274° |
| 2026-05-06 02:12 | 42.24749 | -77.37365 | 31844 ft | 392 kts | 274° |
| 2026-05-06 02:12 | 42.25244 | -77.44692 | 31844 ft | 392 kts | 273° |
| 2026-05-06 02:13 | 42.25770 | -77.52034 | 31848 ft | 393 kts | 277° |
| 2026-05-06 02:13 | 42.27032 | -77.59241 | 31860 ft | 395 kts | 281° |
| 2026-05-06 02:14 | 42.28320 | -77.66384 | 31869 ft | 394 kts | 281° |
| 2026-05-06 02:14 | 42.29505 | -77.72998 | 31873 ft | 394 kts | 281° |
| 2026-05-06 02:15 | 42.30787 | -77.80143 | 31871 ft | 394 kts | 281° |
| 2026-05-06 02:15 | 42.32074 | -77.87336 | 31865 ft | 394 kts | 281° |
| 2026-05-06 02:16 | 42.33353 | -77.94536 | 31863 ft | 394 kts | 281° |
| 2026-05-06 02:16 | 42.34636 | -78.01781 | 31890 ft | 393 kts | 281° |
| 2026-05-06 02:17 | 42.35907 | -78.08966 | 31889 ft | 393 kts | 281° |
| 2026-05-06 02:17 | 42.37163 | -78.16094 | 31890 ft | 392 kts | 281° |
| 2026-05-06 02:18 | 42.38416 | -78.23274 | 31882 ft | 392 kts | 281° |
| 2026-05-06 02:18 | 42.39668 | -78.30453 | 31881 ft | 392 kts | 281° |
| 2026-05-06 02:19 | 42.40919 | -78.37631 | 31880 ft | 392 kts | 281° |
| 2026-05-06 02:19 | 42.42164 | -78.44812 | 31881 ft | 392 kts | 281° |
| 2026-05-06 02:20 | 42.44019 | -78.55588 | 31880 ft | 392 kts | 280° |
| 2026-05-06 02:21 | 42.45245 | -78.62770 | 31890 ft | 392 kts | 280° |
| 2026-05-06 02:21 | 42.46470 | -78.69956 | 31925 ft | 391 kts | 280° |
| 2026-05-06 02:22 | 42.47124 | -78.77197 | 31915 ft | 387 kts | 271° |
| 2026-05-06 02:22 | 42.47364 | -78.84471 | 31891 ft | 386 kts | 271° |
| 2026-05-06 02:23 | 42.47605 | -78.91730 | 31888 ft | 386 kts | 272° |
| 2026-05-06 02:23 | 42.47840 | -78.98996 | 31893 ft | 386 kts | 271° |
| 2026-05-06 02:24 | 42.48077 | -79.06258 | 31912 ft | 386 kts | 272° |
| 2026-05-06 02:24 | 42.48311 | -79.13500 | 31917 ft | 384 kts | 271° |
| 2026-05-06 02:25 | 42.48531 | -79.20727 | 31920 ft | 383 kts | 271° |
| 2026-05-06 02:25 | 42.48745 | -79.27928 | 31911 ft | 382 kts | 271° |
| 2026-05-06 02:26 | 42.48951 | -79.35119 | 31906 ft | 382 kts | 271° |
| 2026-05-06 02:26 | 42.49154 | -79.42293 | 31900 ft | 381 kts | 271° |
| 2026-05-06 02:27 | 42.49362 | -79.49450 | 31914 ft | 380 kts | 272° |
| 2026-05-06 02:27 | 42.49557 | -79.56604 | 31908 ft | 379 kts | 271° |
| 2026-05-06 02:28 | 42.49738 | -79.63733 | 31900 ft | 378 kts | 271° |
| 2026-05-06 02:28 | 42.49918 | -79.70845 | 31890 ft | 378 kts | 271° |
| 2026-05-06 02:29 | 42.50101 | -79.77971 | 31882 ft | 378 kts | 271° |
| 2026-05-06 02:29 | 42.50284 | -79.85078 | 31902 ft | 377 kts | 271° |
| 2026-05-06 02:30 | 42.50460 | -79.92123 | 31901 ft | 376 kts | 271° |
| 2026-05-06 02:30 | 42.50630 | -79.99203 | 31897 ft | 376 kts | 271° |
| 2026-05-06 02:31 | 42.50794 | -80.06268 | 31894 ft | 375 kts | 271° |
| 2026-05-06 02:31 | 42.50961 | -80.13334 | 31887 ft | 375 kts | 271° |
| 2026-05-06 02:32 | 42.51114 | -80.20389 | 31893 ft | 374 kts | 270° |
| 2026-05-06 02:32 | 42.51263 | -80.27428 | 31883 ft | 374 kts | 270° |
| 2026-05-06 02:33 | 42.51409 | -80.34467 | 31880 ft | 373 kts | 270° |
| 2026-05-06 02:33 | 42.51455 | -80.36798 | 31868 ft | 373 kts | 270° |
| 2026-05-06 02:34 | 42.51673 | -80.48538 | 31872 ft | 373 kts | 270° |
| 2026-05-06 02:34 | 42.51798 | -80.55563 | 31884 ft | 372 kts | 270° |
| 2026-05-06 02:35 | 42.51921 | -80.62570 | 31889 ft | 371 kts | 270° |
| 2026-05-06 02:35 | 42.52017 | -80.69565 | 31886 ft | 371 kts | 270° |
| 2026-05-06 02:36 | 42.52084 | -80.76549 | 31883 ft | 371 kts | 269° |
| 2026-05-06 02:36 | 42.52145 | -80.83531 | 31881 ft | 370 kts | 269° |
| 2026-05-06 02:37 | 42.52206 | -80.90515 | 31881 ft | 370 kts | 270° |
| 2026-05-06 02:37 | 42.52269 | -80.97477 | 31906 ft | 369 kts | 269° |
| 2026-05-06 02:38 | 42.52328 | -81.04419 | 31905 ft | 367 kts | 269° |
| 2026-05-06 02:38 | 42.52383 | -81.11337 | 31898 ft | 367 kts | 269° |
| 2026-05-06 02:39 | 42.52428 | -81.18246 | 31772 ft | 368 kts | 269° |
| 2026-05-06 02:39 | 42.52448 | -81.21750 | 30819 ft | 375 kts | 269° |
| 2026-05-06 02:39 | 42.52467 | -81.25311 | 29822 ft | 381 kts | 268° |
| 2026-05-06 02:39 | 42.52486 | -81.28927 | 28825 ft | 386 kts | 268° |
| 2026-05-06 02:40 | 42.52507 | -81.32524 | 28407 ft | 375 kts | 268° |
| 2026-05-06 02:40 | 42.52527 | -81.35989 | 28141 ft | 361 kts | 267° |
| 2026-05-06 02:40 | 42.52361 | -81.39336 | 27875 ft | 353 kts | 262° |
| 2026-05-06 02:40 | 42.52116 | -81.42633 | 27611 ft | 350 kts | 262° |
| 2026-05-06 02:41 | 42.51872 | -81.45920 | 27346 ft | 350 kts | 262° |
| 2026-05-06 02:41 | 42.51627 | -81.49185 | 26925 ft | 348 kts | 262° |
| 2026-05-06 02:41 | 42.51380 | -81.52445 | 26412 ft | 346 kts | 262° |
| 2026-05-06 02:41 | 42.51135 | -81.55674 | 25914 ft | 344 kts | 262° |
| 2026-05-06 02:42 | 42.50890 | -81.58898 | 25406 ft | 343 kts | 262° |
| 2026-05-06 02:42 | 42.50646 | -81.62109 | 24916 ft | 342 kts | 261° |
| 2026-05-06 02:42 | 42.50406 | -81.65298 | 24428 ft | 341 kts | 261° |
| 2026-05-06 02:42 | 42.50163 | -81.68485 | 23938 ft | 339 kts | 261° |
| 2026-05-06 02:43 | 42.49921 | -81.71652 | 23443 ft | 337 kts | 261° |
| 2026-05-06 02:43 | 42.49680 | -81.74793 | 22896 ft | 335 kts | 261° |
| 2026-05-06 02:43 | 42.49440 | -81.77928 | 22411 ft | 334 kts | 261° |
| 2026-05-06 02:43 | 42.49199 | -81.81054 | 21924 ft | 332 kts | 261° |
| 2026-05-06 02:44 | 42.48962 | -81.84152 | 21445 ft | 330 kts | 261° |
| 2026-05-06 02:44 | 42.48723 | -81.87238 | 20970 ft | 328 kts | 261° |
| 2026-05-06 02:44 | 42.48482 | -81.90304 | 20496 ft | 328 kts | 261° |
| 2026-05-06 02:44 | 42.48240 | -81.93365 | 20023 ft | 326 kts | 261° |
| 2026-05-06 02:45 | 42.47999 | -81.96404 | 19547 ft | 324 kts | 261° |
| 2026-05-06 02:45 | 42.47758 | -81.99431 | 19079 ft | 322 kts | 261° |
| 2026-05-06 02:45 | 42.47516 | -82.02439 | 18611 ft | 322 kts | 261° |
| 2026-05-06 02:45 | 42.47277 | -82.05441 | 18147 ft | 320 kts | 261° |
| 2026-05-06 02:46 | 42.47037 | -82.08432 | 17720 ft | 317 kts | 261° |
| 2026-05-06 02:46 | 42.46802 | -82.11390 | 17288 ft | 315 kts | 261° |
| 2026-05-06 02:46 | 42.46568 | -82.14327 | 16840 ft | 313 kts | 261° |
| 2026-05-06 02:46 | 42.46343 | -82.17344 | 16381 ft | 339 kts | 262° |
| 2026-05-06 02:47 | 42.46102 | -82.20529 | 15926 ft | 344 kts | 261° |
| 2026-05-06 02:47 | 42.45843 | -82.23675 | 15781 ft | 330 kts | 261° |
| 2026-05-06 02:47 | 42.45588 | -82.26696 | 15613 ft | 317 kts | 261° |
| 2026-05-06 02:47 | 42.45338 | -82.29634 | 15227 ft | 312 kts | 261° |
| 2026-05-06 02:48 | 42.45089 | -82.32547 | 14783 ft | 310 kts | 261° |
| 2026-05-06 02:48 | 42.44800 | -82.35430 | 14326 ft | 308 kts | 259° |
| 2026-05-06 02:48 | 42.44460 | -82.38293 | 13875 ft | 307 kts | 258° |
| 2026-05-06 02:48 | 42.44103 | -82.41139 | 13444 ft | 307 kts | 258° |
| 2026-05-06 02:49 | 42.43740 | -82.43977 | 12975 ft | 303 kts | 258° |
| 2026-05-06 02:49 | 42.43384 | -82.46784 | 12460 ft | 304 kts | 258° |
| 2026-05-06 02:49 | 42.43150 | -82.48645 | 12195 ft | 301 kts | 258° |
| 2026-05-06 02:49 | 42.42810 | -82.51405 | 12038 ft | 287 kts | 258° |
| 2026-05-06 02:50 | 42.42497 | -82.53992 | 11851 ft | 270 kts | 258° |
| 2026-05-06 02:50 | 42.42201 | -82.56446 | 11384 ft | 260 kts | 258° |
| 2026-05-06 02:50 | 42.41913 | -82.58811 | 10762 ft | 257 kts | 258° |
| 2026-05-06 02:50 | 42.41616 | -82.61213 | 10100 ft | 255 kts | 258° |
| 2026-05-06 02:51 | 42.41322 | -82.63578 | 9424 ft | 255 kts | 257° |
| 2026-05-06 02:51 | 42.41030 | -82.65907 | 8831 ft | 253 kts | 258° |
| 2026-05-06 02:51 | 42.40733 | -82.68267 | 8433 ft | 255 kts | 258° |
| 2026-05-06 02:51 | 42.40436 | -82.70679 | 8075 ft | 257 kts | 260° |
| 2026-05-06 02:52 | 42.40218 | -82.73039 | 7702 ft | 255 kts | 262° |
| 2026-05-06 02:52 | 42.40015 | -82.75448 | 7235 ft | 253 kts | 262° |
| 2026-05-06 02:52 | 42.39813 | -82.77746 | 6768 ft | 246 kts | 262° |
| 2026-05-06 02:52 | 42.39591 | -82.80007 | 6305 ft | 239 kts | 262° |
| 2026-05-06 02:53 | 42.39351 | -82.82235 | 5804 ft | 235 kts | 262° |
| 2026-05-06 02:53 | 42.39111 | -82.84432 | 5309 ft | 237 kts | 262° |
| 2026-05-06 02:53 | 42.38861 | -82.86639 | 4837 ft | 238 kts | 262° |
| 2026-05-06 02:53 | 42.38591 | -82.88877 | 4440 ft | 241 kts | 263° |
| 2026-05-06 02:54 | 42.38311 | -82.91112 | 4049 ft | 241 kts | 262° |
| 2026-05-06 02:54 | 42.38023 | -82.93353 | 3659 ft | 241 kts | 262° |
| 2026-05-06 02:54 | 42.37736 | -82.95552 | 3281 ft | 241 kts | 262° |
| 2026-05-06 02:54 | 42.37438 | -82.97796 | 2993 ft | 236 kts | 262° |
| 2026-05-06 02:55 | 42.37157 | -82.99933 | 2989 ft | 233 kts | 262° |
| 2026-05-06 02:55 | 42.36867 | -83.02089 | 2983 ft | 234 kts | 262° |
| 2026-05-06 02:55 | 42.36570 | -83.04250 | 2987 ft | 233 kts | 261° |
| 2026-05-06 02:55 | 42.36266 | -83.06400 | 2988 ft | 233 kts | 262° |
| 2026-05-06 02:56 | 42.35976 | -83.08558 | 2985 ft | 233 kts | 262° |
| 2026-05-06 02:56 | 42.35696 | -83.10689 | 2987 ft | 223 kts | 262° |
| 2026-05-06 02:56 | 42.35434 | -83.12680 | 2983 ft | 208 kts | 263° |
| 2026-05-06 02:56 | 42.35188 | -83.14525 | 3003 ft | 191 kts | 263° |
| 2026-05-06 02:57 | 42.34950 | -83.16279 | 3000 ft | 184 kts | 262° |
| 2026-05-06 02:57 | 42.34709 | -83.17966 | 2986 ft | 181 kts | 262° |
| 2026-05-06 02:57 | 42.34470 | -83.19630 | 2982 ft | 181 kts | 262° |
| 2026-05-06 02:57 | 42.34231 | -83.21296 | 2986 ft | 180 kts | 262° |
| 2026-05-06 02:58 | 42.33860 | -83.22919 | 2999 ft | 182 kts | 253° |
| 2026-05-06 02:58 | 42.33409 | -83.24492 | 2995 ft | 181 kts | 248° |
| 2026-05-06 02:58 | 42.32542 | -83.25626 | 2956 ft | 171 kts | 208° |
| 2026-05-06 02:58 | 42.31531 | -83.26285 | 2814 ft | 155 kts | 214° |
| 2026-05-06 02:59 | 42.30607 | -83.26998 | 2624 ft | 150 kts | 214° |
| 2026-05-06 02:59 | 42.29701 | -83.27683 | 2433 ft | 149 kts | 214° |
| 2026-05-06 02:59 | 42.28800 | -83.28355 | 2232 ft | 148 kts | 214° |
| 2026-05-06 02:59 | 42.27904 | -83.29019 | 2034 ft | 146 kts | 214° |
| 2026-05-06 03:00 | 42.27011 | -83.29681 | 1829 ft | 147 kts | 214° |
| 2026-05-06 03:00 | 42.26133 | -83.30330 | 1636 ft | 145 kts | 214° |
| 2026-05-06 03:00 | 42.25242 | -83.30989 | 1436 ft | 143 kts | 212° |
| 2026-05-06 03:00 | 42.24381 | -83.31631 | 1217 ft | 143 kts | 211° |
| 2026-05-06 03:01 | 42.23524 | -83.32273 | 1027 ft | 140 kts | 210° |
| 2026-05-06 03:01 | 42.22683 | -83.32889 | 862 ft | 137 kts | 209° |
| 2026-05-06 03:01 | 42.21854 | -83.33502 | 671 ft | 133 kts | 208° |
| 2026-05-06 03:01 | 42.21135 | -83.34025 | 648 ft | 98 kts | 207° |
| 2026-05-06 03:02 | 42.20680 | -83.34356 | 647 ft | 42 kts | 208° |
| 2026-05-06 03:02 | 42.20594 | -83.34420 | 648 ft | 23 kts | 209° |
| 2026-05-06 03:02 | 42.20431 | -83.34544 | 648 ft | 25 kts | 210° |
| 2026-05-06 03:02 | 42.20283 | -83.34654 | 647 ft | 25 kts | 208° |
| 2026-05-06 03:03 | 42.20186 | -83.34797 | 647 ft | 21 kts | 270° |
| 2026-05-06 03:03 | 42.20186 | -83.34991 | 647 ft | 20 kts | 268° |
| 2026-05-06 03:03 | 42.20178 | -83.35181 | 647 ft | 20 kts | 266° |
| 2026-05-06 03:03 | 42.20173 | -83.35373 | 647 ft | 20 kts | 268° |
| 2026-05-06 03:04 | 42.20170 | -83.35566 | 647 ft | 21 kts | 269° |
| 2026-05-06 03:04 | 42.20167 | -83.35764 | 646 ft | 22 kts | 269° |
| 2026-05-06 03:04 | 42.20163 | -83.35967 | 646 ft | 22 kts | 269° |
| 2026-05-06 03:04 | 42.20177 | -83.36118 | 648 ft | 11 kts | 330° |
| 2026-05-06 03:05 | 42.20239 | -83.36097 | 646 ft | 8 kts | 28° |
| 2026-05-06 03:05 | 42.20283 | -83.36065 | 647 ft | 6 kts | 28° |
| 2026-05-06 03:05 | 42.20316 | -83.36042 | 648 ft | 6 kts | 28° |
| 2026-05-06 03:05 | 42.20380 | -83.35994 | 646 ft | 11 kts | 29° |
| 2026-05-06 03:06 | 42.20439 | -83.35954 | 647 ft | 7 kts | 8° |
| 2026-05-06 03:06 | 42.20453 | -83.35976 | 646 ft | 2 kts | 297° |
| 2026-05-06 03:06 | 42.20457 | -83.35986 | 648 ft | 2 kts | 298° |
| 2026-05-06 03:06 | 42.20462 | -83.35997 | 646 ft | 0 kts | 297° |
| 2026-05-06 03:07 | 42.20463 | -83.36001 | 646 ft | 1 kts | 297° |
| 2026-05-06 03:07 | 42.20465 | -83.36005 | 646 ft | 0 kts | 297° |
| 2026-05-06 03:07 | 42.20466 | -83.36008 | 646 ft | 0 kts | 297° |
| 2026-05-06 03:07 | 42.20468 | -83.36013 | 646 ft | 0 kts | 297° |
| 2026-05-06 03:08 | 42.20468 | -83.36014 | 646 ft | 0 kts | 297° |